createdAt,value
2018-12-27T00:00:21.099Z,102638.47
2018-12-27T00:01:28.144Z,102636.77
2018-12-27T00:02:33.050Z,102636.77
2018-12-27T00:03:37.955Z,102638.09
2018-12-27T00:04:42.890Z,102635.03
2018-12-27T00:05:47.792Z,102631.02
2018-12-27T00:06:52.942Z,102634.97
2018-12-27T00:07:57.997Z,102631.44
2018-12-27T00:09:03.695Z,102634.94
2018-12-27T00:10:08.695Z,102632.34
2018-12-27T00:11:13.597Z,102637.60
2018-12-27T00:12:18.687Z,102636.70
2018-12-27T00:13:23.663Z,102643.26
2018-12-27T00:14:28.594Z,102640.20
2018-12-27T00:15:33.525Z,102642.84
2018-12-27T00:16:38.683Z,102642.39
2018-12-27T00:17:43.579Z,102645.89
2018-12-27T00:18:48.575Z,102645.89
2018-12-27T00:19:53.469Z,102645.89
2018-12-27T00:20:58.396Z,102648.52
2018-12-27T00:22:03.315Z,102637.13
2018-12-27T00:23:08.231Z,102632.31
2018-12-27T00:24:13.388Z,102635.39
2018-12-27T00:25:20.422Z,102642.87
2018-12-27T00:26:25.199Z,102634.97
2018-12-27T00:27:30.733Z,102642.51
2018-12-27T00:28:35.650Z,102638.56
2018-12-27T00:29:40.554Z,102642.58
2018-12-27T00:30:45.630Z,102637.76
2018-12-27T00:31:51.008Z,102631.17
2018-12-27T00:33:02.934Z,102631.59
2018-12-27T00:34:03.015Z,102635.06
2018-12-27T00:35:08.045Z,102638.56
2018-12-27T00:36:13.096Z,102633.75
2018-12-27T00:37:18.232Z,102627.65
2018-12-27T00:38:23.511Z,102619.75
2018-12-27T00:39:28.691Z,102626.27
2018-12-27T00:40:33.718Z,102621.97
2018-12-27T00:41:38.745Z,102626.81
2018-12-27T00:42:43.791Z,102621.61
2018-12-27T00:43:48.820Z,102626.39
2018-12-27T00:44:53.867Z,102622.09
2018-12-27T00:45:58.954Z,102618.20
2018-12-27T00:47:04.000Z,102622.53
2018-12-27T00:48:09.058Z,102624.33
2018-12-27T00:49:14.103Z,102618.20
2018-12-27T00:50:19.122Z,102619.91
2018-12-27T00:51:24.183Z,102616.88
2018-12-27T00:52:29.188Z,102619.52
2018-12-27T00:53:34.520Z,102617.78
2018-12-27T00:54:39.622Z,102619.52
2018-12-27T00:55:44.660Z,102616.05
2018-12-27T00:56:49.967Z,102611.23
2018-12-27T00:57:55.004Z,102613.83
2018-12-27T00:59:00.084Z,102610.30
2018-12-27T01:00:05.156Z,102609.37
2018-12-27T01:01:10.196Z,102609.34
2018-12-27T01:02:15.249Z,102611.91
2018-12-27T01:03:20.449Z,102607.97
2018-12-27T01:04:25.500Z,102606.63
2018-12-27T01:05:30.661Z,102607.94
2018-12-27T01:06:35.692Z,102606.63
2018-12-27T01:07:40.724Z,102607.04
2018-12-27T01:08:45.762Z,102599.59
2018-12-27T01:09:51.072Z,102603.96
2018-12-27T01:10:56.351Z,102598.70
2018-12-27T01:12:01.388Z,102600.01
2018-12-27T01:13:06.426Z,102603.96
2018-12-27T01:14:11.468Z,102597.86
2018-12-27T01:15:16.514Z,102596.55
2018-12-27T01:16:21.578Z,102595.73
2018-12-27T01:17:26.629Z,102597.05
2018-12-27T01:18:31.681Z,102594.00
2018-12-27T01:19:36.708Z,102593.58
2018-12-27T01:20:41.776Z,102594.45
2018-12-27T01:21:46.809Z,102597.14
2018-12-27T01:22:51.833Z,102601.48
2018-12-27T01:23:56.887Z,102597.14
2018-12-27T01:25:02.157Z,102596.22
2018-12-27T01:26:07.470Z,102596.22
2018-12-27T01:27:12.508Z,102591.38
2018-12-27T01:28:17.597Z,102587.42
2018-12-27T01:29:22.640Z,102590.92
2018-12-27T01:30:27.681Z,102597.50
2018-12-27T01:31:32.789Z,102589.55
2018-12-27T01:32:37.817Z,102587.78
2018-12-27T01:33:43.092Z,102587.33
2018-12-27T01:34:48.595Z,102590.38
2018-12-27T01:35:53.625Z,102592.14
2018-12-27T01:36:58.936Z,102590.38
2018-12-27T01:38:03.969Z,102589.06
2018-12-27T01:39:09.033Z,102598.28
2018-12-27T01:40:14.580Z,102591.34
2018-12-27T01:41:19.624Z,102591.73
2018-12-27T01:42:24.822Z,102587.42
2018-12-27T01:43:29.830Z,102591.81
2018-12-27T01:44:34.904Z,102589.64
2018-12-27T01:45:39.936Z,102590.05
2018-12-27T01:46:45.321Z,102582.13
2018-12-27T01:47:50.384Z,102586.91
2018-12-27T01:48:55.673Z,102585.59
2018-12-27T01:50:00.707Z,102586.02
2018-12-27T01:51:05.767Z,102579.44
2018-12-27T01:52:10.806Z,102581.17
2018-12-27T01:53:16.402Z,102580.75
2018-12-27T01:54:21.769Z,102578.09
2018-12-27T01:55:26.815Z,102577.67
2018-12-27T01:56:31.877Z,102576.35
2018-12-27T01:57:36.963Z,102579.85
2018-12-27T01:58:42.037Z,102577.70
2018-12-27T01:59:47.324Z,102574.62
2018-12-27T02:00:52.361Z,102572.86
2018-12-27T02:01:57.425Z,102569.80
2018-12-27T02:03:02.461Z,102569.80
2018-12-27T02:04:07.518Z,102577.25
2018-12-27T02:05:12.581Z,102575.48
2018-12-27T02:06:20.888Z,102572.86
2018-12-27T02:07:26.180Z,102568.04
2018-12-27T02:08:31.210Z,102567.59
2018-12-27T02:09:36.298Z,102569.36
2018-12-27T02:10:41.294Z,102569.80
2018-12-27T02:11:46.318Z,102568.91
2018-12-27T02:12:51.341Z,102564.09
2018-12-27T02:13:56.379Z,102565.47
2018-12-27T02:15:01.713Z,102566.78
2018-12-27T02:16:06.985Z,102563.73
2018-12-27T02:17:12.282Z,102563.31
2018-12-27T02:18:17.575Z,102563.31
2018-12-27T02:19:22.622Z,102561.62
2018-12-27T02:20:27.962Z,102555.52
2018-12-27T02:21:33.008Z,102553.75
2018-12-27T02:22:38.286Z,102555.94
2018-12-27T02:23:43.321Z,102555.94
2018-12-27T02:24:48.378Z,102553.30
2018-12-27T02:25:53.455Z,102556.35
2018-12-27T02:26:58.544Z,102557.67
2018-12-27T02:28:03.595Z,102552.89
2018-12-27T02:29:08.621Z,102549.87
2018-12-27T02:30:13.654Z,102543.29
2018-12-27T02:31:18.742Z,102549.80
2018-12-27T02:32:24.005Z,102544.98
2018-12-27T02:33:35.220Z,102544.98
2018-12-27T02:34:35.855Z,102543.67
2018-12-27T02:35:40.918Z,102550.22
2018-12-27T02:36:45.972Z,102548.04
2018-12-27T02:37:51.250Z,102546.30
2018-12-27T02:38:56.303Z,102551.13
2018-12-27T02:40:01.625Z,102548.06
2018-12-27T02:41:06.903Z,102552.50
2018-12-27T02:42:12.212Z,102544.19
2018-12-27T02:43:17.229Z,102548.55
2018-12-27T02:44:22.359Z,102549.87
2018-12-27T02:45:27.393Z,102547.23
2018-12-27T02:46:32.430Z,102550.70
2018-12-27T02:47:37.538Z,102547.23
2018-12-27T02:48:42.818Z,102542.81
2018-12-27T02:49:47.901Z,102541.49
2018-12-27T02:50:52.959Z,102542.33
2018-12-27T02:51:58.006Z,102545.41
2018-12-27T02:53:03.103Z,102542.33
2018-12-27T02:54:08.138Z,102541.05
2018-12-27T02:55:13.457Z,102542.81
2018-12-27T02:56:18.508Z,102541.97
2018-12-27T02:57:23.549Z,102541.11
2018-12-27T02:58:28.582Z,102542.90
2018-12-27T02:59:33.621Z,102540.78
2018-12-27T03:00:38.653Z,102537.80
2018-12-27T03:01:43.681Z,102535.20
2018-12-27T03:02:48.716Z,102540.07
2018-12-27T03:03:53.765Z,102536.60
2018-12-27T03:04:59.047Z,102532.72
2018-12-27T03:06:04.089Z,102531.95
2018-12-27T03:07:09.120Z,102538.55
2018-12-27T03:08:14.171Z,102535.53
2018-12-27T03:09:19.194Z,102531.14
2018-12-27T03:10:24.259Z,102535.63
2018-12-27T03:11:29.278Z,102524.66
2018-12-27T03:12:34.304Z,102526.00
2018-12-27T03:13:39.571Z,102527.77
2018-12-27T03:14:44.629Z,102531.32
2018-12-27T03:15:49.670Z,102533.50
2018-12-27T03:16:54.834Z,102526.95
2018-12-27T03:17:59.846Z,102525.67
2018-12-27T03:19:04.896Z,102528.36
2018-12-27T03:20:10.019Z,102521.37
2018-12-27T03:21:15.077Z,102515.75
2018-12-27T03:22:20.390Z,102513.12
2018-12-27T03:23:25.431Z,102511.45
2018-12-27T03:24:30.456Z,102504.03
2018-12-27T03:25:35.499Z,102510.67
2018-12-27T03:26:40.533Z,102506.31
2018-12-27T03:27:45.593Z,102505.05
2018-12-27T03:28:50.653Z,102503.33
2018-12-27T03:29:55.697Z,102500.27
2018-12-27T03:31:00.742Z,102498.58
2018-12-27T03:32:05.782Z,102504.73
2018-12-27T03:33:10.808Z,102501.23
2018-12-27T03:34:15.847Z,102502.58
2018-12-27T03:35:21.119Z,102501.77
2018-12-27T03:36:26.415Z,102497.47
2018-12-27T03:37:31.447Z,102497.92
2018-12-27T03:38:36.733Z,102495.31
2018-12-27T03:39:41.799Z,102498.00
2018-12-27T03:40:46.843Z,102494.09
2018-12-27T03:41:51.906Z,102491.10
2018-12-27T03:42:56.937Z,102493.73
2018-12-27T03:44:02.011Z,102492.86
2018-12-27T03:45:07.025Z,102487.67
2018-12-27T03:46:12.058Z,102488.98
2018-12-27T03:47:17.198Z,102482.89
2018-12-27T03:48:22.233Z,102481.19
2018-12-27T03:49:27.512Z,102485.16
2018-12-27T03:50:32.878Z,102490.86
2018-12-27T03:51:37.908Z,102490.47
2018-12-27T03:52:42.955Z,102490.95
2018-12-27T03:53:47.982Z,102490.08
2018-12-27T03:54:53.264Z,102487.06
2018-12-27T03:55:58.561Z,102483.58
2018-12-27T03:57:03.579Z,102483.13
2018-12-27T03:58:08.779Z,102482.70
2018-12-27T03:59:13.972Z,102482.26
2018-12-27T04:00:19.514Z,102478.31
2018-12-27T04:01:24.797Z,102482.67
2018-12-27T04:02:29.818Z,102477.00
2018-12-27T04:03:34.872Z,102476.13
2018-12-27T04:04:40.147Z,102479.19
2018-12-27T04:05:45.177Z,102472.61
2018-12-27T04:06:50.198Z,102472.16
2018-12-27T04:07:56.606Z,102467.80
2018-12-27T04:09:01.839Z,102465.20
2018-12-27T04:10:07.158Z,102469.59
2018-12-27T04:11:12.198Z,102466.58
2018-12-27T04:12:17.247Z,102466.16
2018-12-27T04:13:22.277Z,102469.20
2018-12-27T04:14:27.324Z,102461.34
2018-12-27T04:15:32.253Z,102464.42
2018-12-27T04:16:37.492Z,102466.16
2018-12-27T04:17:42.655Z,102463.53
2018-12-27T04:18:47.655Z,102470.99
2018-12-27T04:19:52.568Z,102467.05
2018-12-27T04:20:57.554Z,102467.53
2018-12-27T04:22:02.592Z,102465.73
2018-12-27T04:23:07.896Z,102466.61
2018-12-27T04:24:13.391Z,102465.29
2018-12-27T04:25:18.724Z,102470.52
2018-12-27T04:26:23.871Z,102465.71
2018-12-27T04:27:29.256Z,102469.67
2018-12-27T04:28:34.407Z,102464.84
2018-12-27T04:29:39.562Z,102467.47
2018-12-27T04:30:45.529Z,102468.78
2018-12-27T04:31:51.087Z,102470.52
2018-12-27T04:32:56.975Z,102463.53
2018-12-27T04:34:09.439Z,102471.41
2018-12-27T04:35:11.597Z,102463.53
2018-12-27T04:36:16.772Z,102469.66
2018-12-27T04:37:21.699Z,102464.84
2018-12-27T04:38:26.619Z,102465.27
2018-12-27T04:39:31.518Z,102469.20
2018-12-27T04:40:36.449Z,102464.39
2018-12-27T04:41:42.025Z,102466.58
2018-12-27T04:42:47.207Z,102466.12
2018-12-27T04:43:52.365Z,102466.16
2018-12-27T04:44:57.326Z,102466.12
2018-12-27T04:46:02.240Z,102461.32
2018-12-27T04:47:07.160Z,102463.50
2018-12-27T04:48:12.137Z,102462.63
2018-12-27T04:49:17.608Z,102467.89
2018-12-27T04:50:22.520Z,102464.84
2018-12-27T04:51:27.678Z,102461.32
2018-12-27T04:52:33.081Z,102467.44
2018-12-27T04:53:37.986Z,102462.22
2018-12-27T04:54:42.897Z,102463.53
2018-12-27T04:55:48.056Z,102458.27
2018-12-27T04:56:52.972Z,102461.34
2018-12-27T04:57:57.903Z,102457.85
2018-12-27T04:59:02.803Z,102457.41
2018-12-27T05:00:08.466Z,102461.80
2018-12-27T05:01:13.446Z,102456.59
2018-12-27T05:02:18.424Z,102456.59
2018-12-27T05:03:23.594Z,102456.59
2018-12-27T05:04:28.761Z,102458.36
2018-12-27T05:05:33.665Z,102458.39
2018-12-27T05:06:38.643Z,102454.06
2018-12-27T05:07:43.545Z,102451.43
2018-12-27T05:08:48.788Z,102447.52
2018-12-27T05:09:53.708Z,102452.77
2018-12-27T05:10:58.610Z,102451.07
2018-12-27T05:12:03.523Z,102451.52
2018-12-27T05:13:08.550Z,102445.84
2018-12-27T05:14:13.504Z,102454.63
2018-12-27T05:15:18.441Z,102449.37
2018-12-27T05:16:23.368Z,102447.22
2018-12-27T05:17:28.518Z,102448.11
2018-12-27T05:18:33.448Z,102448.11
2018-12-27T05:19:38.477Z,102452.92
2018-12-27T05:20:43.382Z,102451.19
2018-12-27T05:21:48.293Z,102451.64
2018-12-27T05:22:53.445Z,102452.95
2018-12-27T05:23:58.420Z,102453.84
2018-12-27T05:25:03.417Z,102446.38
2018-12-27T05:26:08.337Z,102447.69
2018-12-27T05:27:13.249Z,102448.20
2018-12-27T05:28:18.161Z,102453.03
2018-12-27T05:29:23.067Z,102451.30
2018-12-27T05:30:30.816Z,102450.05
2018-12-27T05:31:35.729Z,102449.18
2018-12-27T05:32:41.161Z,102450.50
2018-12-27T05:33:46.340Z,102451.81
2018-12-27T05:34:51.274Z,102456.25
2018-12-27T05:35:56.201Z,102451.45
2018-12-27T05:37:01.148Z,102458.46
2018-12-27T05:38:06.086Z,102464.14
2018-12-27T05:39:11.000Z,102458.88
2018-12-27T05:40:16.159Z,102464.14
2018-12-27T05:41:21.164Z,102459.33
2018-12-27T05:42:26.020Z,102465.03
2018-12-27T05:43:31.421Z,102462.41
2018-12-27T05:44:36.313Z,102459.77
2018-12-27T05:45:41.230Z,102461.09
2018-12-27T05:46:46.158Z,102461.09
2018-12-27T05:47:51.058Z,102461.53
2018-12-27T05:48:55.972Z,102465.92
2018-12-27T05:50:00.870Z,102466.38
2018-12-27T05:51:05.771Z,102464.22
2018-12-27T05:52:10.786Z,102461.59
2018-12-27T05:53:15.692Z,102462.48
2018-12-27T05:54:20.605Z,102465.12
2018-12-27T05:55:25.761Z,102463.38
2018-12-27T05:56:30.661Z,102462.52
2018-12-27T05:57:35.614Z,102466.91
2018-12-27T05:58:40.521Z,102466.09
2018-12-27T05:59:45.432Z,102464.78
2018-12-27T06:00:50.327Z,102468.72
2018-12-27T06:01:55.259Z,102466.09
2018-12-27T06:03:00.447Z,102466.09
2018-12-27T06:04:05.397Z,102470.48
2018-12-27T06:05:10.308Z,102467.91
2018-12-27T06:06:15.467Z,102463.55
2018-12-27T06:07:20.370Z,102464.44
2018-12-27T06:08:25.296Z,102465.76
2018-12-27T06:09:30.241Z,102461.82
2018-12-27T06:10:35.154Z,102466.17
2018-12-27T06:11:40.152Z,102463.13
2018-12-27T06:12:45.066Z,102464.44
2018-12-27T06:13:50.024Z,102464.44
2018-12-27T06:14:54.940Z,102465.76
2018-12-27T06:16:00.180Z,102466.17
2018-12-27T06:17:05.409Z,102464.44
2018-12-27T06:18:10.639Z,102462.69
2018-12-27T06:19:15.561Z,102461.82
2018-12-27T06:20:20.500Z,102463.58
2018-12-27T06:21:25.428Z,102459.64
2018-12-27T06:22:30.335Z,102461.88
2018-12-27T06:23:35.235Z,102461.01
2018-12-27T06:24:40.165Z,102463.22
2018-12-27T06:25:45.320Z,102466.77
2018-12-27T06:26:50.480Z,102463.27
2018-12-27T06:27:55.395Z,102458.89
2018-12-27T06:29:00.287Z,102460.23
2018-12-27T06:30:05.957Z,102465.03
2018-12-27T06:31:11.089Z,102458.91
2018-12-27T06:32:16.243Z,102467.23
2018-12-27T06:33:21.393Z,102460.23
2018-12-27T06:34:26.297Z,102465.50
2018-12-27T06:35:31.205Z,102466.81
2018-12-27T06:36:36.125Z,102461.56
2018-12-27T06:37:41.560Z,102462.49
2018-12-27T06:38:46.468Z,102459.86
2018-12-27T06:39:51.377Z,102458.55
2018-12-27T06:40:56.308Z,102465.12
2018-12-27T06:42:01.214Z,102462.07
2018-12-27T06:43:06.165Z,102461.63
2018-12-27T06:44:11.078Z,102463.38
2018-12-27T06:45:16.187Z,102469.05
2018-12-27T06:46:21.370Z,102460.31
2018-12-27T06:47:26.362Z,102463.80
2018-12-27T06:48:31.266Z,102454.19
2018-12-27T06:49:36.166Z,102456.39
2018-12-27T06:50:41.101Z,102457.23
2018-12-27T06:51:46.302Z,102455.50
2018-12-27T06:52:51.198Z,102458.58
2018-12-27T06:53:56.123Z,102459.02
2018-12-27T06:55:01.116Z,102462.58
2018-12-27T06:56:06.032Z,102465.64
2018-12-27T06:57:10.934Z,102464.78
2018-12-27T06:58:15.834Z,102456.45
2018-12-27T06:59:20.990Z,102460.39
2018-12-27T07:00:25.904Z,102455.14
2018-12-27T07:01:30.829Z,102455.14
2018-12-27T07:02:35.998Z,102463.47
2018-12-27T07:03:40.894Z,102462.16
2018-12-27T07:04:49.049Z,102463.91
2018-12-27T07:05:52.659Z,102467.91
2018-12-27T07:06:57.561Z,102468.30
2018-12-27T07:08:02.598Z,102467.41
2018-12-27T07:09:08.450Z,102466.09
2018-12-27T07:10:13.650Z,102469.61
2018-12-27T07:11:18.554Z,102463.05
2018-12-27T07:12:23.467Z,102465.67
2018-12-27T07:13:28.403Z,102463.97
2018-12-27T07:14:33.286Z,102461.34
2018-12-27T07:15:38.228Z,102460.92
2018-12-27T07:16:43.368Z,102464.86
2018-12-27T07:17:48.283Z,102466.63
2018-12-27T07:18:53.337Z,102461.37
2018-12-27T07:19:58.249Z,102463.99
2018-12-27T07:21:03.153Z,102465.75
2018-12-27T07:22:08.052Z,102464.86
2018-12-27T07:23:13.025Z,102461.37
2018-12-27T07:24:17.968Z,102460.92
2018-12-27T07:25:22.873Z,102460.92
2018-12-27T07:26:28.083Z,102460.48
2018-12-27T07:27:33.151Z,102462.17
2018-12-27T07:28:38.116Z,102463.10
2018-12-27T07:29:43.288Z,102464.86
2018-12-27T07:30:48.476Z,102458.30
2018-12-27T07:31:53.626Z,102461.37
2018-12-27T07:32:59.051Z,102461.37
2018-12-27T07:34:04.251Z,102460.50
2018-12-27T07:35:09.174Z,102459.61
2018-12-27T07:36:14.079Z,102455.25
2018-12-27T07:37:19.108Z,102459.61
2018-12-27T07:38:24.034Z,102464.41
2018-12-27T07:39:28.921Z,102472.69
2018-12-27T07:40:33.850Z,102465.28
2018-12-27T07:41:38.750Z,102470.05
2018-12-27T07:42:43.652Z,102467.91
2018-12-27T07:43:48.625Z,102465.28
2018-12-27T07:44:53.532Z,102465.23
2018-12-27T07:45:58.468Z,102459.11
2018-12-27T07:47:03.468Z,102461.26
2018-12-27T07:48:08.605Z,102471.77
2018-12-27T07:49:13.508Z,102461.70
2018-12-27T07:50:18.481Z,102460.81
2018-12-27T07:51:23.411Z,102461.26
2018-12-27T07:52:28.337Z,102465.14
2018-12-27T07:53:33.547Z,102462.52
2018-12-27T07:54:38.718Z,102462.07
2018-12-27T07:55:43.621Z,102465.50
2018-12-27T07:56:48.514Z,102468.13
2018-12-27T07:57:53.611Z,102461.96
2018-12-27T07:58:58.523Z,102462.41
2018-12-27T08:00:03.575Z,102468.47
2018-12-27T08:01:08.877Z,102465.81
2018-12-27T08:02:13.803Z,102466.20
2018-12-27T08:03:18.700Z,102464.44
2018-12-27T08:04:23.615Z,102468.80
2018-12-27T08:05:28.590Z,102462.23
2018-12-27T08:06:33.488Z,102467.91
2018-12-27T08:07:38.401Z,102466.60
2018-12-27T08:08:43.312Z,102464.36
2018-12-27T08:09:48.211Z,102465.20
2018-12-27T08:10:53.109Z,102461.65
2018-12-27T08:11:58.017Z,102462.52
2018-12-27T08:13:03.037Z,102468.64
2018-12-27T08:14:07.942Z,102467.74
2018-12-27T08:15:12.911Z,102473.42
2018-12-27T08:16:20.179Z,102465.92
2018-12-27T08:17:27.508Z,102468.11
2018-12-27T08:18:32.436Z,102466.77
2018-12-27T08:19:37.362Z,102464.52
2018-12-27T08:20:42.321Z,102464.50
2018-12-27T08:21:47.804Z,102459.19
2018-12-27T08:22:52.706Z,102463.99
2018-12-27T08:23:57.627Z,102465.73
2018-12-27T08:25:02.535Z,102467.45
2018-12-27T08:26:07.708Z,102457.75
2018-12-27T08:27:12.608Z,102461.25
2018-12-27T08:28:17.544Z,102456.80
2018-12-27T08:29:22.480Z,102460.27
2018-12-27T08:30:27.617Z,102458.47
2018-12-27T08:31:32.837Z,102457.13
2018-12-27T08:32:38.310Z,102466.27
2018-12-27T08:33:43.376Z,102458.36
2018-12-27T08:34:48.493Z,102461.41
2018-12-27T08:35:53.404Z,102460.45
2018-12-27T08:36:58.315Z,102462.63
2018-12-27T08:38:03.539Z,102456.51
2018-12-27T08:39:08.501Z,102456.93
2018-12-27T08:40:13.701Z,102448.98
2018-12-27T08:41:18.869Z,102458.16
2018-12-27T08:42:23.771Z,102456.84
2018-12-27T08:43:28.691Z,102453.77
2018-12-27T08:44:33.589Z,102452.06
2018-12-27T08:45:38.535Z,102454.23
2018-12-27T08:46:43.428Z,102453.80
2018-12-27T08:47:48.334Z,102445.04
2018-12-27T08:48:53.241Z,102447.67
2018-12-27T08:49:58.161Z,102443.25
2018-12-27T08:51:03.148Z,102448.51
2018-12-27T08:52:08.122Z,102441.01
2018-12-27T08:53:13.032Z,102442.33
2018-12-27T08:54:18.442Z,102435.75
2018-12-27T08:55:23.364Z,102437.91
2018-12-27T08:56:28.319Z,102436.97
2018-12-27T08:57:33.301Z,102440.91
2018-12-27T08:58:38.272Z,102437.42
2018-12-27T08:59:43.158Z,102434.77
2018-12-27T09:00:48.162Z,102435.19
2018-12-27T09:01:53.326Z,102428.61
2018-12-27T09:02:58.273Z,102432.05
2018-12-27T09:04:03.191Z,102427.59
2018-12-27T09:05:08.207Z,102432.84
2018-12-27T09:06:13.116Z,102434.16
2018-12-27T09:07:18.025Z,102430.22
2018-12-27T09:08:23.215Z,102434.13
2018-12-27T09:09:28.185Z,102432.37
2018-12-27T09:10:33.090Z,102436.73
2018-12-27T09:11:38.076Z,102435.80
2018-12-27T09:12:43.347Z,102439.72
2018-12-27T09:13:48.206Z,102431.38
2018-12-27T09:14:53.198Z,102429.14
2018-12-27T09:15:58.094Z,102433.50
2018-12-27T09:17:03.074Z,102429.11
2018-12-27T09:18:08.004Z,102432.98
2018-12-27T09:19:13.236Z,102432.95
2018-12-27T09:20:18.210Z,102429.44
2018-12-27T09:21:23.111Z,102434.63
2018-12-27T09:22:28.107Z,102426.73
2018-12-27T09:23:33.016Z,102424.98
2018-12-27T09:24:37.906Z,102426.27
2018-12-27T09:25:43.057Z,102423.12
2018-12-27T09:26:47.948Z,102426.55
2018-12-27T09:27:52.930Z,102426.52
2018-12-27T09:28:58.174Z,102419.05
2018-12-27T09:30:03.072Z,102422.52
2018-12-27T09:31:08.241Z,102415.00
2018-12-27T09:32:13.472Z,102417.58
2018-12-27T09:33:18.666Z,102414.05
2018-12-27T09:34:23.605Z,102418.41
2018-12-27T09:35:28.555Z,102421.42
2018-12-27T09:36:33.449Z,102427.55
2018-12-27T09:37:38.426Z,102428.83
2018-12-27T09:38:43.553Z,102426.20
2018-12-27T09:39:48.499Z,102428.31
2018-12-27T09:40:53.409Z,102423.02
2018-12-27T09:41:58.362Z,102426.45
2018-12-27T09:43:03.267Z,102429.02
2018-12-27T09:44:08.247Z,102425.91
2018-12-27T09:45:13.163Z,102430.24
2018-12-27T09:46:18.073Z,102426.30
2018-12-27T09:47:22.974Z,102426.65
2018-12-27T09:48:27.878Z,102424.02
2018-12-27T09:49:32.769Z,102429.70
2018-12-27T09:50:38.010Z,102426.16
2018-12-27T09:51:42.932Z,102428.34
2018-12-27T09:52:47.838Z,102425.20
2018-12-27T09:53:52.752Z,102425.13
2018-12-27T09:54:57.896Z,102432.99
2018-12-27T09:56:02.861Z,102427.28
2018-12-27T09:57:07.778Z,102428.08
2018-12-27T09:58:12.994Z,102421.47
2018-12-27T09:59:17.876Z,102418.33
2018-12-27T10:00:22.810Z,102422.69
2018-12-27T10:01:27.756Z,102424.35
2018-12-27T10:02:32.654Z,102423.84
2018-12-27T10:03:37.710Z,102423.73
2018-12-27T10:04:42.696Z,102415.00
2018-12-27T10:05:47.692Z,102415.36
2018-12-27T10:06:52.854Z,102411.34
2018-12-27T10:07:57.823Z,102409.98
2018-12-27T10:09:03.526Z,102416.98
2018-12-27T10:10:08.509Z,102416.02
2018-12-27T10:11:13.435Z,102414.62
2018-12-27T10:12:18.362Z,102415.95
2018-12-27T10:13:23.292Z,102413.31
2018-12-27T10:14:28.270Z,102414.59
2018-12-27T10:15:33.266Z,102410.65
2018-12-27T10:16:38.247Z,102410.13
2018-12-27T10:17:43.167Z,102410.52
2018-12-27T10:18:48.129Z,102408.67
2018-12-27T10:19:53.057Z,102406.84
2018-12-27T10:20:57.991Z,102394.05
2018-12-27T10:22:03.221Z,102398.84
2018-12-27T10:23:08.214Z,102403.62
2018-12-27T10:24:13.387Z,102397.41
2018-12-27T10:25:18.339Z,102392.56
2018-12-27T10:26:23.254Z,102393.43
2018-12-27T10:27:28.149Z,102396.02
2018-12-27T10:28:33.080Z,102399.45
2018-12-27T10:29:38.012Z,102394.60
2018-12-27T10:30:42.925Z,102397.62
2018-12-27T10:31:47.820Z,102399.38
2018-12-27T10:32:52.752Z,102397.62
2018-12-27T10:33:57.933Z,102399.80
2018-12-27T10:35:02.944Z,102396.72
2018-12-27T10:36:08.080Z,102406.34
2018-12-27T10:37:13.081Z,102397.99
2018-12-27T10:38:18.080Z,102397.13
2018-12-27T10:39:23.096Z,102394.50
2018-12-27T10:40:28.316Z,102394.88
2018-12-27T10:41:33.227Z,102389.13
2018-12-27T10:42:38.168Z,102393.00
2018-12-27T10:43:43.107Z,102392.97
2018-12-27T10:44:48.053Z,102395.04
2018-12-27T10:45:52.947Z,102390.64
2018-12-27T10:46:57.853Z,102389.21
2018-12-27T10:48:03.059Z,102381.23
2018-12-27T10:49:07.964Z,102385.08
2018-12-27T10:50:12.974Z,102374.92
2018-12-27T10:51:18.121Z,102377.03
2018-12-27T10:52:23.041Z,102374.32
2018-12-27T10:53:28.204Z,102374.70
2018-12-27T10:54:33.365Z,102371.95
2018-12-27T10:55:38.292Z,102374.58
2018-12-27T10:56:43.202Z,102375.79
2018-12-27T10:57:48.181Z,102373.56
2018-12-27T10:58:53.092Z,102370.94
2018-12-27T10:59:57.995Z,102373.95
2018-12-27T11:01:02.921Z,102372.14
2018-12-27T11:02:08.083Z,102377.41
2018-12-27T11:03:12.997Z,102372.06
2018-12-27T11:04:17.937Z,102373.34
2018-12-27T11:05:22.849Z,102370.70
2018-12-27T11:06:28.195Z,102359.23
2018-12-27T11:07:33.097Z,102365.81
2018-12-27T11:08:38.005Z,102363.59
2018-12-27T11:09:42.897Z,102358.33
2018-12-27T11:10:47.829Z,102364.88
2018-12-27T11:11:52.833Z,102362.16
2018-12-27T11:12:58.006Z,102354.22
2018-12-27T11:14:02.971Z,102355.46
2018-12-27T11:15:08.049Z,102361.48
2018-12-27T11:16:12.916Z,102355.30
2018-12-27T11:17:17.848Z,102353.45
2018-12-27T11:18:22.801Z,102345.44
2018-12-27T11:19:27.733Z,102351.45
2018-12-27T11:20:32.827Z,102347.38
2018-12-27T11:21:37.776Z,102347.27
2018-12-27T11:22:42.717Z,102339.65
2018-12-27T11:23:49.397Z,102335.13
2018-12-27T11:24:54.628Z,102328.48
2018-12-27T11:25:59.605Z,102326.64
2018-12-27T11:27:04.509Z,102331.67
2018-12-27T11:28:09.506Z,102321.98
2018-12-27T11:29:14.416Z,102324.05
2018-12-27T11:30:19.334Z,102321.29
2018-12-27T11:31:24.474Z,102319.85
2018-12-27T11:32:29.427Z,102317.55
2018-12-27T11:33:34.349Z,102318.73
2018-12-27T11:34:39.332Z,102313.42
2018-12-27T11:35:44.282Z,102311.56
2018-12-27T11:36:49.425Z,102311.52
2018-12-27T11:37:54.582Z,102311.44
2018-12-27T11:38:59.519Z,102306.58
2018-12-27T11:40:04.799Z,102301.63
2018-12-27T11:41:09.943Z,102295.90
2018-12-27T11:42:14.850Z,102294.13
2018-12-27T11:43:19.848Z,102296.30
2018-12-27T11:44:24.771Z,102296.30
2018-12-27T11:45:29.703Z,102296.64
2018-12-27T11:46:35.147Z,102294.00
2018-12-27T11:47:40.063Z,102290.78
2018-12-27T11:48:44.979Z,102285.50
2018-12-27T11:49:49.967Z,102286.73
2018-12-27T11:50:55.129Z,102280.09
2018-12-27T11:52:00.028Z,102273.50
2018-12-27T11:53:04.996Z,102275.23
2018-12-27T11:54:09.898Z,102276.09
2018-12-27T11:55:14.894Z,102271.64
2018-12-27T11:56:20.046Z,102275.61
2018-12-27T11:57:25.234Z,102273.45
2018-12-27T11:58:30.123Z,102275.15
2018-12-27T11:59:35.092Z,102278.19
2018-12-27T12:00:40.021Z,102268.09
2018-12-27T12:01:44.918Z,102275.10
2018-12-27T12:02:49.825Z,102275.15
2018-12-27T12:03:54.754Z,102265.86
2018-12-27T12:04:59.727Z,102266.73
2018-12-27T12:06:04.648Z,102269.29
2018-12-27T12:07:09.545Z,102260.05
2018-12-27T12:08:14.448Z,102267.05
2018-12-27T12:09:19.709Z,102266.14
2018-12-27T12:10:24.912Z,102261.24
2018-12-27T12:11:29.826Z,102255.91
2018-12-27T12:12:34.807Z,102256.78
2018-12-27T12:13:40.048Z,102256.70
2018-12-27T12:14:44.983Z,102262.30
2018-12-27T12:15:49.916Z,102257.42
2018-12-27T12:16:54.836Z,102256.52
2018-12-27T12:17:59.762Z,102253.42
2018-12-27T12:19:04.933Z,102248.06
2018-12-27T12:20:09.849Z,102254.98
2018-12-27T12:21:14.852Z,102259.30
2018-12-27T12:22:19.786Z,102257.44